sensor_id;sensor_type;location;lat;lon;timestamp;pressure;altitude;pressure_sealevel;temperature;humidity
60089;BME280;45961;53.574;55.878;2022-12-18T00:00:16;101248.66;;;-1.77;88.12
60089;BME280;45961;53.574;55.878;2022-12-18T00:01:32;101245.03;;;-1.68;87.97
60089;BME280;45961;53.574;55.878;2022-12-18T00:02:33;101245.97;;;-1.78;87.93
60089;BME280;45961;53.574;55.878;2022-12-18T00:03:35;101253.19;;;-1.72;87.73
60089;BME280;45961;53.574;55.878;2022-12-18T00:04:36;101256.69;;;-1.70;87.74
60089;BME280;45961;53.574;55.878;2022-12-18T00:05:36;101253.94;;;-1.74;87.61
60089;BME280;45961;53.574;55.878;2022-12-18T00:06:37;101259.78;;;-1.75;87.62
60089;BME280;45961;53.574;55.878;2022-12-18T00:07:38;101240.81;;;-1.68;87.43
60089;BME280;45961;53.574;55.878;2022-12-18T00:08:39;101253.28;;;-1.71;87.24
60089;BME280;45961;53.574;55.878;2022-12-18T00:09:40;101251.19;;;-1.65;87.02
60089;BME280;45961;53.574;55.878;2022-12-18T00:10:40;101244.34;;;-1.66;87.00
60089;BME280;45961;53.574;55.878;2022-12-18T00:11:41;101235.94;;;-1.65;86.75
60089;BME280;45961;53.574;55.878;2022-12-18T00:12:42;101246.88;;;-1.66;86.78
60089;BME280;45961;53.574;55.878;2022-12-18T00:13:43;101238.94;;;-1.70;86.58
60089;BME280;45961;53.574;55.878;2022-12-18T00:14:43;101233.75;;;-1.72;86.50
60089;BME280;45961;53.574;55.878;2022-12-18T00:15:44;101237.16;;;-1.71;86.15
60089;BME280;45961;53.574;55.878;2022-12-18T00:16:45;101240.69;;;-1.69;86.24
60089;BME280;45961;53.574;55.878;2022-12-18T00:17:46;101238.06;;;-1.71;86.30
60089;BME280;45961;53.574;55.878;2022-12-18T00:18:48;101230.34;;;-1.72;86.33
60089;BME280;45961;53.574;55.878;2022-12-18T00:19:49;101221.94;;;-1.71;86.27
60089;BME280;45961;53.574;55.878;2022-12-18T00:20:49;101226.13;;;-1.72;86.28
60089;BME280;45961;53.574;55.878;2022-12-18T00:21:50;101217.97;;;-1.68;86.22
60089;BME280;45961;53.574;55.878;2022-12-18T00:22:51;101218.53;;;-1.72;86.18
60089;BME280;45961;53.574;55.878;2022-12-18T00:23:52;101215.22;;;-1.71;86.22
60089;BME280;45961;53.574;55.878;2022-12-18T00:24:53;101208.56;;;-1.69;85.80
60089;BME280;45961;53.574;55.878;2022-12-18T00:25:54;101224.03;;;-1.66;85.75
60089;BME280;45961;53.574;55.878;2022-12-18T00:26:54;101222.50;;;-1.64;85.37
60089;BME280;45961;53.574;55.878;2022-12-18T00:27:55;101219.84;;;-1.65;85.04
60089;BME280;45961;53.574;55.878;2022-12-18T00:28:59;101228.72;;;-1.60;84.91
60089;BME280;45961;53.574;55.878;2022-12-18T00:30:01;101228.34;;;-1.53;84.70
60089;BME280;45961;53.574;55.878;2022-12-18T00:31:12;101230.56;;;-1.58;84.09
60089;BME280;45961;53.574;55.878;2022-12-18T00:32:14;101223.97;;;-1.56;83.97
60089;BME280;45961;53.574;55.878;2022-12-18T00:33:14;101225.38;;;-1.59;83.96
60089;BME280;45961;53.574;55.878;2022-12-18T00:34:15;101233.78;;;-1.60;83.72
60089;BME280;45961;53.574;55.878;2022-12-18T00:35:17;101230.69;;;-1.56;83.90
60089;BME280;45961;53.574;55.878;2022-12-18T00:36:19;101231.56;;;-1.56;83.68
60089;BME280;45961;53.574;55.878;2022-12-18T00:37:20;101240.16;;;-1.54;83.84
60089;BME280;45961;53.574;55.878;2022-12-18T00:38:24;101238.41;;;-1.55;83.63
60089;BME280;45961;53.574;55.878;2022-12-18T00:39:25;101233.25;;;-1.56;83.44
60089;BME280;45961;53.574;55.878;2022-12-18T00:40:26;101233.00;;;-1.59;83.51
60089;BME280;45961;53.574;55.878;2022-12-18T00:41:28;101233.09;;;-1.58;83.23
60089;BME280;45961;53.574;55.878;2022-12-18T00:42:47;101229.59;;;-1.60;83.21
60089;BME280;45961;53.574;55.878;2022-12-18T00:43:57;101226.81;;;-1.63;83.35
60089;BME280;45961;53.574;55.878;2022-12-18T00:44:58;101209.03;;;-1.63;83.29
60089;BME280;45961;53.574;55.878;2022-12-18T00:45:59;101207.94;;;-1.66;83.07
60089;BME280;45961;53.574;55.878;2022-12-18T00:47:00;101201.19;;;-1.66;82.87
60089;BME280;45961;53.574;55.878;2022-12-18T00:48:01;101202.63;;;-1.58;83.07
60089;BME280;45961;53.574;55.878;2022-12-18T00:49:01;101207.16;;;-1.54;83.00
60089;BME280;45961;53.574;55.878;2022-12-18T00:50:03;101211.38;;;-1.54;82.77
60089;BME280;45961;53.574;55.878;2022-12-18T00:51:03;101214.69;;;-1.55;82.65
60089;BME280;45961;53.574;55.878;2022-12-18T00:52:04;101203.88;;;-1.53;82.69
60089;BME280;45961;53.574;55.878;2022-12-18T00:53:05;101212.47;;;-1.51;82.35
60089;BME280;45961;53.574;55.878;2022-12-18T00:54:06;101211.50;;;-1.53;82.28
60089;BME280;45961;53.574;55.878;2022-12-18T00:55:07;101204.84;;;-1.51;82.21
60089;BME280;45961;53.574;55.878;2022-12-18T00:56:08;101210.94;;;-1.48;81.97
60089;BME280;45961;53.574;55.878;2022-12-18T00:57:09;101214.03;;;-1.53;81.92
60089;BME280;45961;53.574;55.878;2022-12-18T00:58:10;101210.94;;;-1.48;81.78
60089;BME280;45961;53.574;55.878;2022-12-18T00:59:11;101219.53;;;-1.46;81.58
60089;BME280;45961;53.574;55.878;2022-12-18T01:00:13;101220.75;;;-1.41;81.73
60089;BME280;45961;53.574;55.878;2022-12-18T01:01:15;101220.19;;;-1.37;81.49
60089;BME280;45961;53.574;55.878;2022-12-18T01:02:16;101216.13;;;-1.35;81.25
60089;BME280;45961;53.574;55.878;2022-12-18T01:03:17;101220.19;;;-1.37;81.14
60089;BME280;45961;53.574;55.878;2022-12-18T01:04:18;101220.00;;;-1.40;80.92
60089;BME280;45961;53.574;55.878;2022-12-18T01:05:19;101231.69;;;-1.42;80.67
60089;BME280;45961;53.574;55.878;2022-12-18T01:06:20;101228.28;;;-1.43;80.50
60089;BME280;45961;53.574;55.878;2022-12-18T01:07:21;101224.84;;;-1.43;80.24
60089;BME280;45961;53.574;55.878;2022-12-18T01:08:21;101226.38;;;-1.45;80.09
60089;BME280;45961;53.574;55.878;2022-12-18T01:09:22;101222.19;;;-1.45;79.77
60089;BME280;45961;53.574;55.878;2022-12-18T01:10:25;101220.56;;;-1.44;79.55
60089;BME280;45961;53.574;55.878;2022-12-18T01:11:26;101215.69;;;-1.41;79.30
60089;BME280;45961;53.574;55.878;2022-12-18T01:12:26;101215.91;;;-1.38;79.12
60089;BME280;45961;53.574;55.878;2022-12-18T01:13:27;101210.72;;;-1.40;78.95
60089;BME280;45961;53.574;55.878;2022-12-18T01:14:28;101208.06;;;-1.41;78.77
60089;BME280;45961;53.574;55.878;2022-12-18T01:15:29;101208.19;;;-1.40;78.67
60089;BME280;45961;53.574;55.878;2022-12-18T01:16:29;101203.22;;;-1.38;78.68
60089;BME280;45961;53.574;55.878;2022-12-18T01:17:30;101206.84;;;-1.46;78.64
60089;BME280;45961;53.574;55.878;2022-12-18T01:18:31;101201.69;;;-1.48;78.49
60089;BME280;45961;53.574;55.878;2022-12-18T01:19:32;101198.91;;;-1.51;78.45
60089;BME280;45961;53.574;55.878;2022-12-18T01:20:33;101187.97;;;-1.50;78.38
60089;BME280;45961;53.574;55.878;2022-12-18T01:21:34;101198.13;;;-1.50;78.28
60089;BME280;45961;53.574;55.878;2022-12-18T01:22:38;101191.94;;;-1.54;78.48
60089;BME280;45961;53.574;55.878;2022-12-18T01:23:40;101187.75;;;-1.53;78.25
60089;BME280;45961;53.574;55.878;2022-12-18T01:24:46;101187.75;;;-1.53;78.16
60089;BME280;45961;53.574;55.878;2022-12-18T01:25:46;101191.19;;;-1.53;78.20
60089;BME280;45961;53.574;55.878;2022-12-18T01:26:47;101208.72;;;-1.56;77.97
60089;BME280;45961;53.574;55.878;2022-12-18T01:27:48;101202.88;;;-1.55;77.85
60089;BME280;45961;53.574;55.878;2022-12-18T01:28:49;101201.88;;;-1.57;77.93
60089;BME280;45961;53.574;55.878;2022-12-18T01:29:49;101203.66;;;-1.56;77.57
60089;BME280;45961;53.574;55.878;2022-12-18T01:30:53;101207.94;;;-1.55;77.50
60089;BME280;45961;53.574;55.878;2022-12-18T01:31:55;101209.50;;;-1.57;77.60
60089;BME280;45961;53.574;55.878;2022-12-18T01:32:56;101207.16;;;-1.54;77.37
60089;BME280;45961;53.574;55.878;2022-12-18T01:33:59;101205.19;;;-1.58;77.15
60089;BME280;45961;53.574;55.878;2022-12-18T01:35:01;101206.84;;;-1.58;76.95
60089;BME280;45961;53.574;55.878;2022-12-18T01:36:03;101205.41;;;-1.55;77.11
60089;BME280;45961;53.574;55.878;2022-12-18T01:37:04;101206.97;;;-1.57;76.99
60089;BME280;45961;53.574;55.878;2022-12-18T01:38:05;101200.09;;;-1.58;76.67
60089;BME280;45961;53.574;55.878;2022-12-18T01:39:07;101197.56;;;-1.58;76.81
60089;BME280;45961;53.574;55.878;2022-12-18T01:40:08;101205.63;;;-1.63;76.87
60089;BME280;45961;53.574;55.878;2022-12-18T01:41:09;101197.34;;;-1.61;76.92
60089;BME280;45961;53.574;55.878;2022-12-18T01:42:11;101197.78;;;-1.66;76.87
60089;BME280;45961;53.574;55.878;2022-12-18T01:43:12;101198.41;;;-1.69;76.77
60089;BME280;45961;53.574;55.878;2022-12-18T01:45:33;101189.28;;;-1.67;76.19
60089;BME280;45961;53.574;55.878;2022-12-18T01:46:35;101185.72;;;-1.69;76.29
60089;BME280;45961;53.574;55.878;2022-12-18T01:48:39;101189.72;;;-1.72;76.16
60089;BME280;45961;53.574;55.878;2022-12-18T01:49:40;101195.78;;;-1.70;75.90
60089;BME280;45961;53.574;55.878;2022-12-18T01:50:42;101187.94;;;-1.74;76.12
60089;BME280;45961;53.574;55.878;2022-12-18T01:51:44;101195.44;;;-1.75;76.10
60089;BME280;45961;53.574;55.878;2022-12-18T01:52:46;101192.91;;;-1.75;75.71
60089;BME280;45961;53.574;55.878;2022-12-18T01:53:48;101199.50;;;-1.77;75.77
60089;BME280;45961;53.574;55.878;2022-12-18T01:54:49;101195.56;;;-1.74;75.85
60089;BME280;45961;53.574;55.878;2022-12-18T01:55:57;101185.94;;;-1.78;75.65
60089;BME280;45961;53.574;55.878;2022-12-18T01:56:58;101191.16;;;-1.76;75.64
60089;BME280;45961;53.574;55.878;2022-12-18T01:58:01;101190.13;;;-1.78;75.43
60089;BME280;45961;53.574;55.878;2022-12-18T01:59:03;101196.34;;;-1.75;75.25
60089;BME280;45961;53.574;55.878;2022-12-18T02:00:09;101189.91;;;-1.81;75.18
60089;BME280;45961;53.574;55.878;2022-12-18T02:01:16;101200.28;;;-1.78;75.20
60089;BME280;45961;53.574;55.878;2022-12-18T02:02:18;101193.47;;;-1.79;75.32
60089;BME280;45961;53.574;55.878;2022-12-18T02:03:19;101186.16;;;-1.86;74.99
60089;BME280;45961;53.574;55.878;2022-12-18T02:04:23;101193.34;;;-1.81;75.21
60089;BME280;45961;53.574;55.878;2022-12-18T02:05:28;101190.44;;;-1.85;75.33
60089;BME280;45961;53.574;55.878;2022-12-18T02:06:33;101191.22;;;-1.86;75.59
60089;BME280;45961;53.574;55.878;2022-12-18T02:07:41;101193.09;;;-1.95;75.58
60089;BME280;45961;53.574;55.878;2022-12-18T02:08:50;101185.47;;;-1.95;75.81
60089;BME280;45961;53.574;55.878;2022-12-18T02:12:39;101183.75;;;-1.85;75.81
60089;BME280;45961;53.574;55.878;2022-12-18T02:14:04;101190.13;;;-1.90;75.39
60089;BME280;45961;53.574;55.878;2022-12-18T02:15:09;101186.94;;;-1.87;75.49
60089;BME280;45961;53.574;55.878;2022-12-18T02:17:21;101188.13;;;-1.94;75.64
60089;BME280;45961;53.574;55.878;2022-12-18T02:18:27;101197.63;;;-1.91;75.67
60089;BME280;45961;53.574;55.878;2022-12-18T02:19:43;101195.88;;;-1.92;75.48
60089;BME280;45961;53.574;55.878;2022-12-18T02:20:48;101194.31;;;-1.90;75.66
60089;BME280;45961;53.574;55.878;2022-12-18T02:21:53;101201.94;;;-1.90;75.46
60089;BME280;45961;53.574;55.878;2022-12-18T02:23:10;101204.03;;;-1.96;75.43
60089;BME280;45961;53.574;55.878;2022-12-18T02:24:18;101209.78;;;-1.87;75.46
60089;BME280;45961;53.574;55.878;2022-12-18T02:25:40;101210.56;;;-1.88;75.18
60089;BME280;45961;53.574;55.878;2022-12-18T02:26:47;101213.72;;;-1.91;74.66
60089;BME280;45961;53.574;55.878;2022-12-18T02:27:55;101218.59;;;-1.82;74.90
60089;BME280;45961;53.574;55.878;2022-12-18T02:29:15;101208.91;;;-1.76;74.73
60089;BME280;45961;53.574;55.878;2022-12-18T02:30:17;101214.63;;;-1.79;74.68
60089;BME280;45961;53.574;55.878;2022-12-18T02:31:20;101211.56;;;-1.75;74.66
60089;BME280;45961;53.574;55.878;2022-12-18T02:32:26;101218.19;;;-1.77;74.29
60089;BME280;45961;53.574;55.878;2022-12-18T02:33:27;101215.53;;;-1.78;74.31
60089;BME280;45961;53.574;55.878;2022-12-18T02:34:31;101223.03;;;-1.80;74.44
60089;BME280;45961;53.574;55.878;2022-12-18T02:35:33;101221.81;;;-1.73;74.29
60089;BME280;45961;53.574;55.878;2022-12-18T02:36:36;101225.38;;;-1.71;74.16
60089;BME280;45961;53.574;55.878;2022-12-18T02:37:38;101222.50;;;-1.64;74.14
60089;BME280;45961;53.574;55.878;2022-12-18T02:38:41;101223.06;;;-1.68;73.96
60089;BME280;45961;53.574;55.878;2022-12-18T02:39:46;101226.25;;;-1.59;73.91
60089;BME280;45961;53.574;55.878;2022-12-18T02:40:49;101221.84;;;-1.61;73.70
60089;BME280;45961;53.574;55.878;2022-12-18T02:41:52;101220.72;;;-1.65;73.74
60089;BME280;45961;53.574;55.878;2022-12-18T02:42:55;101228.72;;;-1.60;73.52
60089;BME280;45961;53.574;55.878;2022-12-18T02:43:59;101221.28;;;-1.57;73.54
60089;BME280;45961;53.574;55.878;2022-12-18T02:45:02;101217.66;;;-1.61;73.49
60089;BME280;45961;53.574;55.878;2022-12-18T02:46:23;101218.84;;;-1.67;73.40
60089;BME280;45961;53.574;55.878;2022-12-18T02:47:31;101215.44;;;-1.68;73.36
60089;BME280;45961;53.574;55.878;2022-12-18T02:48:33;101219.19;;;-1.63;73.37
60089;BME280;45961;53.574;55.878;2022-12-18T02:51:02;101205.63;;;-1.63;73.31
60089;BME280;45961;53.574;55.878;2022-12-18T02:53:20;101207.84;;;-1.68;73.11
60089;BME280;45961;53.574;55.878;2022-12-18T02:54:32;101204.84;;;-1.62;73.29
60089;BME280;45961;53.574;55.878;2022-12-18T02:55:41;101204.19;;;-1.60;73.43
60089;BME280;45961;53.574;55.878;2022-12-18T02:56:50;101209.69;;;-1.65;73.58
60089;BME280;45961;53.574;55.878;2022-12-18T02:58:59;101199.91;;;-1.61;73.91
60089;BME280;45961;53.574;55.878;2022-12-18T03:00:32;101212.38;;;-1.64;73.71
60089;BME280;45961;53.574;55.878;2022-12-18T03:01:44;101209.13;;;-1.61;73.76
60089;BME280;45961;53.574;55.878;2022-12-18T03:04:08;101211.03;;;-1.59;73.78
60089;BME280;45961;53.574;55.878;2022-12-18T03:05:14;101208.25;;;-1.62;73.35
60089;BME280;45961;53.574;55.878;2022-12-18T03:07:28;101201.97;;;-1.67;73.36
60089;BME280;45961;53.574;55.878;2022-12-18T03:08:37;101204.06;;;-1.61;73.55
60089;BME280;45961;53.574;55.878;2022-12-18T03:09:39;101190.16;;;-1.66;73.23
60089;BME280;45961;53.574;55.878;2022-12-18T03:10:42;101192.16;;;-1.62;73.18
60089;BME280;45961;53.574;55.878;2022-12-18T03:11:46;101201.09;;;-1.56;73.27
60089;BME280;45961;53.574;55.878;2022-12-18T03:13:12;101187.75;;;-1.53;73.55
60089;BME280;45961;53.574;55.878;2022-12-18T03:14:15;101192.81;;;-1.53;73.45
60089;BME280;45961;53.574;55.878;2022-12-18T03:15:27;101185.34;;;-1.52;73.49
60089;BME280;45961;53.574;55.878;2022-12-18T03:16:38;101191.50;;;-1.60;73.47
60089;BME280;45961;53.574;55.878;2022-12-18T03:17:41;101179.69;;;-1.59;73.61
60089;BME280;45961;53.574;55.878;2022-12-18T03:19:59;101180.91;;;-1.54;73.70
60089;BME280;45961;53.574;55.878;2022-12-18T03:21:05;101174.72;;;-1.58;73.70
60089;BME280;45961;53.574;55.878;2022-12-18T03:22:09;101179.03;;;-1.57;73.58
60089;BME280;45961;53.574;55.878;2022-12-18T03:23:20;101179.78;;;-1.58;73.64
60089;BME280;45961;53.574;55.878;2022-12-18T03:24:23;101178.13;;;-1.57;73.57
60089;BME280;45961;53.574;55.878;2022-12-18T03:25:25;101178.13;;;-1.57;73.45
60089;BME280;45961;53.574;55.878;2022-12-18T03:26:28;101177.16;;;-1.59;73.27
60089;BME280;45961;53.574;55.878;2022-12-18T03:27:34;101175.81;;;-1.54;73.20
60089;BME280;45961;53.574;55.878;2022-12-18T03:28:51;101177.81;;;-1.50;73.28
60089;BME280;45961;53.574;55.878;2022-12-18T03:29:56;101180.66;;;-1.57;73.54
60089;BME280;45961;53.574;55.878;2022-12-18T03:31:09;101184.00;;;-1.58;73.66
60089;BME280;45961;53.574;55.878;2022-12-18T03:32:11;101172.94;;;-1.59;73.57
60089;BME280;45961;53.574;55.878;2022-12-18T03:33:19;101174.50;;;-1.61;73.37
60089;BME280;45961;53.574;55.878;2022-12-18T03:34:32;101178.03;;;-1.59;73.27
60089;BME280;45961;53.574;55.878;2022-12-18T03:35:38;101173.75;;;-1.60;73.07
60089;BME280;45961;53.574;55.878;2022-12-18T03:36:39;101167.97;;;-1.57;73.03
60089;BME280;45961;53.574;55.878;2022-12-18T03:37:41;101171.06;;;-1.61;73.13
60089;BME280;45961;53.574;55.878;2022-12-18T03:38:42;101168.50;;;-1.73;73.11
60089;BME280;45961;53.574;55.878;2022-12-18T03:39:44;101165.44;;;-1.81;73.09
60089;BME280;45961;53.574;55.878;2022-12-18T03:40:53;101166.88;;;-1.72;73.22
60089;BME280;45961;53.574;55.878;2022-12-18T03:42:18;101169.63;;;-1.69;73.27
60089;BME280;45961;53.574;55.878;2022-12-18T03:43:45;101181.34;;;-1.60;73.34
60089;BME280;45961;53.574;55.878;2022-12-18T03:45:54;101186.44;;;-1.60;73.41
60089;BME280;45961;53.574;55.878;2022-12-18T03:47:10;101195.13;;;-1.68;73.48
60089;BME280;45961;53.574;55.878;2022-12-18T03:48:33;101202.84;;;-1.66;73.29
60089;BME280;45961;53.574;55.878;2022-12-18T03:49:51;101195.88;;;-1.69;73.44
60089;BME280;45961;53.574;55.878;2022-12-18T03:50:57;101207.84;;;-1.68;73.50
60089;BME280;45961;53.574;55.878;2022-12-18T03:52:03;101197.88;;;-1.65;73.39
60089;BME280;45961;53.574;55.878;2022-12-18T03:54:18;101196.34;;;-1.63;73.27
60089;BME280;45961;53.574;55.878;2022-12-18T03:55:29;101193.56;;;-1.66;73.50
60089;BME280;45961;53.574;55.878;2022-12-18T03:56:45;101198.00;;;-1.63;73.35
60089;BME280;45961;53.574;55.878;2022-12-18T03:57:49;101190.63;;;-1.60;73.25
60089;BME280;45961;53.574;55.878;2022-12-18T03:58:52;101178.69;;;-1.61;73.42
60089;BME280;45961;53.574;55.878;2022-12-18T04:00:09;101183.44;;;-1.66;73.44
60089;BME280;45961;53.574;55.878;2022-12-18T04:01:14;101180.66;;;-1.57;73.27
60089;BME280;45961;53.574;55.878;2022-12-18T04:02:20;101178.03;;;-1.59;73.38
60089;BME280;45961;53.574;55.878;2022-12-18T04:03:22;101183.34;;;-1.56;73.31
60089;BME280;45961;53.574;55.878;2022-12-18T04:04:24;101177.47;;;-1.55;73.17
60089;BME280;45961;53.574;55.878;2022-12-18T04:05:26;101177.56;;;-1.65;72.99
60089;BME280;45961;53.574;55.878;2022-12-18T04:06:28;101187.63;;;-1.55;73.02
60089;BME280;45961;53.574;55.878;2022-12-18T04:07:29;101176.84;;;-1.52;73.16
60089;BME280;45961;53.574;55.878;2022-12-18T04:08:32;101175.94;;;-1.53;72.99
60089;BME280;45961;53.574;55.878;2022-12-18T04:09:39;101170.19;;;-1.62;73.13
60089;BME280;45961;53.574;55.878;2022-12-18T04:10:40;101171.19;;;-1.60;73.09
60089;BME280;45961;53.574;55.878;2022-12-18T04:11:41;101167.88;;;-1.59;72.93
60089;BME280;45961;53.574;55.878;2022-12-18T04:12:45;101166.13;;;-1.60;72.88
60089;BME280;45961;53.574;55.878;2022-12-18T04:13:47;101157.72;;;-1.59;72.92
60089;BME280;45961;53.574;55.878;2022-12-18T04:14:54;101164.38;;;-1.61;72.84
60089;BME280;45961;53.574;55.878;2022-12-18T04:15:56;101152.41;;;-1.62;72.75
60089;BME280;45961;53.574;55.878;2022-12-18T04:16:58;101154.94;;;-1.62;72.79
60089;BME280;45961;53.574;55.878;2022-12-18T04:18:04;101152.66;;;-1.59;73.09
60089;BME280;45961;53.574;55.878;2022-12-18T04:19:11;101159.47;;;-1.58;72.98
60089;BME280;45961;53.574;55.878;2022-12-18T04:20:15;101151.78;;;-1.59;73.26
60089;BME280;45961;53.574;55.878;2022-12-18T04:21:18;101155.84;;;-1.61;73.32
60089;BME280;45961;53.574;55.878;2022-12-18T04:22:20;101154.72;;;-1.65;73.32
60089;BME280;45961;53.574;55.878;2022-12-18T04:23:26;101153.53;;;-1.58;73.65
60089;BME280;45961;53.574;55.878;2022-12-18T04:24:31;101153.75;;;-1.67;73.70
60089;BME280;45961;53.574;55.878;2022-12-18T04:25:41;101161.03;;;-1.60;73.83
60089;BME280;45961;53.574;55.878;2022-12-18T04:26:45;101165.44;;;-1.69;73.77
60089;BME280;45961;53.574;55.878;2022-12-18T04:27:51;101155.41;;;-1.67;73.75
60089;BME280;45961;53.574;55.878;2022-12-18T04:28:52;101165.88;;;-1.63;73.99
60089;BME280;45961;53.574;55.878;2022-12-18T04:29:53;101159.16;;;-1.62;74.03
60089;BME280;45961;53.574;55.878;2022-12-18T04:30:54;101153.75;;;-1.67;74.15
60089;BME280;45961;53.574;55.878;2022-12-18T04:31:55;101161.91;;;-1.71;74.05
60089;BME280;45961;53.574;55.878;2022-12-18T04:32:57;101158.81;;;-1.67;73.86
60089;BME280;45961;53.574;55.878;2022-12-18T04:33:58;101158.91;;;-1.65;73.75
60089;BME280;45961;53.574;55.878;2022-12-18T04:34:59;101157.25;;;-1.65;73.88
60089;BME280;45961;53.574;55.878;2022-12-18T04:36:00;101157.50;;;-1.62;73.80
60089;BME280;45961;53.574;55.878;2022-12-18T04:37:04;101153.97;;;-1.64;73.91
60089;BME280;45961;53.574;55.878;2022-12-18T04:38:05;101153.75;;;-1.67;74.16
60089;BME280;45961;53.574;55.878;2022-12-18T04:39:07;101161.25;;;-1.68;74.48
60089;BME280;45961;53.574;55.878;2022-12-18T04:40:08;101158.81;;;-1.67;74.46
60089;BME280;45961;53.574;55.878;2022-12-18T04:41:14;101158.38;;;-1.61;74.34
60089;BME280;45961;53.574;55.878;2022-12-18T04:42:19;101161.03;;;-1.60;74.27
60089;BME280;45961;53.574;55.878;2022-12-18T04:43:20;101163.13;;;-1.54;74.38
60089;BME280;45961;53.574;55.878;2022-12-18T04:44:21;101166.44;;;-1.55;74.58
60089;BME280;45961;53.574;55.878;2022-12-18T04:45:22;101170.50;;;-1.57;74.30
60089;BME280;45961;53.574;55.878;2022-12-18T04:46:22;101177.59;;;-1.53;74.33
60089;BME280;45961;53.574;55.878;2022-12-18T04:47:23;101178.69;;;-1.50;74.55
60089;BME280;45961;53.574;55.878;2022-12-18T04:48:24;101173.19;;;-1.56;74.78
60089;BME280;45961;53.574;55.878;2022-12-18T04:49:25;101172.88;;;-1.48;74.87
60089;BME280;45961;53.574;55.878;2022-12-18T04:50:25;101166.00;;;-1.61;74.52
60089;BME280;45961;53.574;55.878;2022-12-18T04:51:26;101163.34;;;-1.51;74.55
60089;BME280;45961;53.574;55.878;2022-12-18T04:52:27;101160.34;;;-1.57;74.76
60089;BME280;45961;53.574;55.878;2022-12-18T04:53:29;101158.84;;;-1.55;74.75
60089;BME280;45961;53.574;55.878;2022-12-18T04:54:30;101158.72;;;-1.57;74.71
60089;BME280;45961;53.574;55.878;2022-12-18T04:55:30;101166.22;;;-1.58;74.70
60089;BME280;45961;53.574;55.878;2022-12-18T04:56:31;101158.59;;;-1.58;74.88
60089;BME280;45961;53.574;55.878;2022-12-18T04:57:32;101152.09;;;-1.55;75.08
60089;BME280;45961;53.574;55.878;2022-12-18T04:58:33;101152.31;;;-1.52;74.99
60089;BME280;45961;53.574;55.878;2022-12-18T04:59:34;101147.91;;;-1.54;75.21
60089;BME280;45961;53.574;55.878;2022-12-18T05:00:34;101152.31;;;-1.52;75.05
60089;BME280;45961;53.574;55.878;2022-12-18T05:01:55;101151.13;;;-1.57;74.84
60089;BME280;45961;53.574;55.878;2022-12-18T05:02:56;101143.03;;;-1.63;74.74
60089;BME280;45961;53.574;55.878;2022-12-18T05:03:57;101153.66;;;-1.57;74.65
60089;BME280;45961;53.574;55.878;2022-12-18T05:04:58;101153.09;;;-1.53;74.70
60089;BME280;45961;53.574;55.878;2022-12-18T05:05:58;101144.94;;;-1.60;74.99
60089;BME280;45961;53.574;55.878;2022-12-18T05:06:59;101149.31;;;-1.58;74.94
60089;BME280;45961;53.574;55.878;2022-12-18T05:08:00;101153.97;;;-1.64;74.83
60089;BME280;45961;53.574;55.878;2022-12-18T05:09:00;101145.34;;;-1.66;74.69
60089;BME280;45961;53.574;55.878;2022-12-18T05:10:01;101152.41;;;-1.62;74.44
60089;BME280;45961;53.574;55.878;2022-12-18T05:11:04;101149.56;;;-1.55;74.50
60089;BME280;45961;53.574;55.878;2022-12-18T05:12:05;101143.50;;;-1.57;74.13
60089;BME280;45961;53.574;55.878;2022-12-18T05:13:06;101144.25;;;-1.58;74.15
60089;BME280;45961;53.574;55.878;2022-12-18T05:14:07;101142.50;;;-1.59;74.14
60089;BME280;45961;53.574;55.878;2022-12-18T05:15:07;101145.25;;;-1.56;74.24
60089;BME280;45961;53.574;55.878;2022-12-18T05:16:09;101144.38;;;-1.56;73.89
60089;BME280;45961;53.574;55.878;2022-12-18T05:17:10;101146.25;;;-1.54;73.78
60089;BME280;45961;53.574;55.878;2022-12-18T05:18:10;101145.03;;;-1.59;73.92
60089;BME280;45961;53.574;55.878;2022-12-18T05:19:11;101149.78;;;-1.63;73.75
60089;BME280;45961;53.574;55.878;2022-12-18T05:20:12;101154.72;;;-1.65;73.79
60089;BME280;45961;53.574;55.878;2022-12-18T05:21:13;101150.00;;;-1.60;73.77
60089;BME280;45961;53.574;55.878;2022-12-18T05:22:14;101155.28;;;-1.57;73.62
60089;BME280;45961;53.574;55.878;2022-12-18T05:23:14;101149.00;;;-1.51;73.58
60089;BME280;45961;53.574;55.878;2022-12-18T05:24:15;101157.06;;;-1.56;73.40
60089;BME280;45961;53.574;55.878;2022-12-18T05:25:16;101149.31;;;-1.58;73.26
60089;BME280;45961;53.574;55.878;2022-12-18T05:26:17;101140.19;;;-1.56;73.44
60089;BME280;45961;53.574;55.878;2022-12-18T05:27:18;101152.66;;;-1.59;73.49
60089;BME280;45961;53.574;55.878;2022-12-18T05:28:21;101145.69;;;-1.61;73.38
60089;BME280;45961;53.574;55.878;2022-12-18T05:29:23;101149.00;;;-1.62;73.62
60089;BME280;45961;53.574;55.878;2022-12-18T05:30:24;101153.44;;;-1.60;73.55
60089;BME280;45961;53.574;55.878;2022-12-18T05:31:27;101145.91;;;-1.58;73.53
60089;BME280;45961;53.574;55.878;2022-12-18T05:32:27;101148.22;;;-1.50;73.46
60089;BME280;45961;53.574;55.878;2022-12-18T05:33:30;101142.41;;;-1.48;73.21
60089;BME280;45961;53.574;55.878;2022-12-18T05:34:31;101138.84;;;-1.51;73.37
60089;BME280;45961;53.574;55.878;2022-12-18T05:35:33;101144.81;;;-1.62;73.08
60089;BME280;45961;53.574;55.878;2022-12-18T05:36:34;101140.72;;;-1.60;72.95
60089;BME280;45961;53.574;55.878;2022-12-18T05:37:35;101135.53;;;-1.61;73.12
60089;BME280;45961;53.574;55.878;2022-12-18T05:38:37;101134.78;;;-1.60;73.13
60089;BME280;45961;53.574;55.878;2022-12-18T05:39:38;101129.56;;;-1.62;73.50
60089;BME280;45961;53.574;55.878;2022-12-18T05:40:41;101133.22;;;-1.58;73.64
60089;BME280;45961;53.574;55.878;2022-12-18T05:41:44;101128.28;;;-1.57;73.72
60089;BME280;45961;53.574;55.878;2022-12-18T05:42:45;101132.09;;;-1.62;73.59
60089;BME280;45961;53.574;55.878;2022-12-18T05:43:46;101131.47;;;-1.59;73.33
60089;BME280;45961;53.574;55.878;2022-12-18T05:44:47;101132.66;;;-1.54;73.31